createdAt,value
2022-12-14T00:02:11.305Z,-5.37
2022-12-14T00:04:39.679Z,-5.40
2022-12-14T00:07:08.046Z,-5.40
2022-12-14T00:09:36.787Z,-5.36
2022-12-14T00:12:05.235Z,-5.36
2022-12-14T00:14:33.863Z,-5.35
2022-12-14T00:17:02.519Z,-5.35
2022-12-14T00:19:30.864Z,-5.37
2022-12-14T00:21:59.158Z,-5.36
2022-12-14T00:24:27.571Z,-5.37
2022-12-14T00:26:55.934Z,-5.41
2022-12-14T00:29:24.199Z,-5.47
2022-12-14T00:31:52.643Z,-5.52
2022-12-14T00:34:21.021Z,-5.58
2022-12-14T00:36:49.330Z,-5.61
2022-12-14T00:39:17.731Z,-5.60
2022-12-14T00:41:46.242Z,-5.61
2022-12-14T00:44:14.674Z,-5.60
2022-12-14T00:46:43.005Z,-5.59
2022-12-14T00:49:11.825Z,-5.56
2022-12-14T00:51:40.388Z,-5.56
2022-12-14T00:54:08.791Z,-5.60
2022-12-14T00:56:37.174Z,-5.57
2022-12-14T00:59:05.546Z,-5.54
2022-12-14T01:01:34.301Z,-5.58
2022-12-14T01:04:18.328Z,-5.59
2022-12-14T01:06:48.868Z,-5.60
2022-12-14T01:09:18.596Z,-5.52
2022-12-14T01:11:47.425Z,-5.46
2022-12-14T01:14:18.240Z,-5.42
2022-12-14T01:16:47.055Z,-5.47
2022-12-14T01:19:16.278Z,-5.54
2022-12-14T01:21:45.126Z,-5.61
2022-12-14T01:24:13.600Z,-5.64
2022-12-14T01:26:42.310Z,-5.68
2022-12-14T01:29:11.830Z,-5.72
2022-12-14T01:31:40.592Z,-5.77
2022-12-14T01:34:10.063Z,-5.78
2022-12-14T01:36:39.693Z,-5.76
2022-12-14T01:39:15.977Z,-5.74
2022-12-14T01:41:48.949Z,-5.69
2022-12-14T01:44:17.235Z,-5.69
2022-12-14T01:46:54.813Z,-5.74
2022-12-14T01:49:34.719Z,-5.76
2022-12-14T01:52:10.285Z,-5.72
2022-12-14T01:54:44.627Z,-5.76
2022-12-14T01:57:19.547Z,-5.79
2022-12-14T01:59:48.908Z,-5.82
2022-12-14T02:02:18.964Z,-5.86
2022-12-14T02:04:56.016Z,-5.93
2022-12-14T02:07:27.262Z,-5.99
2022-12-14T02:10:00.317Z,-5.98
2022-12-14T02:12:40.762Z,-5.98
2022-12-14T02:15:09.615Z,-6.02
2022-12-14T02:17:39.096Z,-6.09
2022-12-14T02:20:07.909Z,-6.13
2022-12-14T02:23:34.976Z,-6.14
2022-12-14T02:26:52.633Z,-6.18
2022-12-14T02:29:46.794Z,-6.29
2022-12-14T02:32:42.880Z,-6.39
2022-12-14T02:35:11.612Z,-6.49
2022-12-14T02:38:06.147Z,-6.54
2022-12-14T02:40:37.186Z,-6.60
2022-12-14T02:43:22.718Z,-6.69
2022-12-14T02:46:00.900Z,-6.76
2022-12-14T02:48:56.241Z,-6.79
2022-12-14T02:51:27.346Z,-6.83
2022-12-14T02:54:04.360Z,-6.87
2022-12-14T02:56:45.764Z,-6.92
2022-12-14T02:59:16.495Z,-6.95
2022-12-14T03:01:47.334Z,-6.99
2022-12-14T03:04:17.182Z,-7.02
2022-12-14T03:07:00.390Z,-7.06
2022-12-14T03:09:31.953Z,-7.12
2022-12-14T03:12:11.274Z,-7.17
2022-12-14T03:14:48.983Z,-7.24
2022-12-14T03:17:25.258Z,-7.27
2022-12-14T03:20:00.105Z,-7.28
2022-12-14T03:22:40.789Z,-7.28
2022-12-14T03:25:19.254Z,-7.28
2022-12-14T03:27:58.219Z,-7.28
2022-12-14T03:30:58.326Z,-7.30
2022-12-14T03:33:20.798Z,-7.32
2022-12-14T03:36:14.010Z,-7.34
2022-12-14T03:38:51.398Z,-7.38
2022-12-14T03:41:35.807Z,-7.41
2022-12-14T03:44:25.798Z,-7.46
2022-12-14T03:47:16.002Z,-7.52
2022-12-14T03:50:04.885Z,-7.57
2022-12-14T03:52:38.107Z,-7.60
2022-12-14T03:55:22.071Z,-7.63
2022-12-14T03:58:18.887Z,-7.67
2022-12-14T04:01:15.929Z,-7.71
2022-12-14T04:03:57.952Z,-7.74
2022-12-14T04:06:34.573Z,-7.77
2022-12-14T04:09:28.249Z,-7.79
2022-12-14T04:12:34.231Z,-7.83
2022-12-14T04:15:30.660Z,-7.86
2022-12-14T04:18:24.308Z,-7.89
2022-12-14T04:20:59.583Z,-7.93
2022-12-14T04:23:59.931Z,-7.95
2022-12-14T04:26:35.154Z,-7.98
2022-12-14T04:29:28.692Z,-8.01
2022-12-14T04:32:06.141Z,-8.03
2022-12-14T04:34:38.104Z,-8.05
2022-12-14T04:37:12.479Z,-8.07
2022-12-14T04:40:07.113Z,-8.08
2022-12-14T04:42:44.485Z,-8.12
2022-12-14T04:45:20.344Z,-8.13
2022-12-14T04:48:00.192Z,-8.15
2022-12-14T04:50:38.894Z,-8.19
2022-12-14T04:53:16.738Z,-8.21
2022-12-14T04:55:53.582Z,-8.22
2022-12-14T04:58:28.210Z,-8.23
2022-12-14T05:01:14.937Z,-8.23
2022-12-14T05:03:55.832Z,-8.21
2022-12-14T05:06:33.382Z,-8.21
2022-12-14T05:09:30.038Z,-8.20
2022-12-14T05:12:05.557Z,-8.16
2022-12-14T05:14:46.621Z,-8.13
2022-12-14T05:17:16.031Z,-8.11
2022-12-14T05:19:51.709Z,-8.11
2022-12-14T05:22:21.819Z,-8.12
2022-12-14T05:24:50.326Z,-8.15
2022-12-14T05:27:18.709Z,-8.16
2022-12-14T05:29:47.076Z,-8.16
2022-12-14T05:32:15.464Z,-8.16
2022-12-14T05:34:43.833Z,-8.18
2022-12-14T05:37:17.979Z,-8.20
2022-12-14T05:39:46.820Z,-8.22
2022-12-14T05:42:15.402Z,-8.25
2022-12-14T05:44:43.785Z,-8.27
2022-12-14T05:47:12.157Z,-8.30
2022-12-14T05:49:40.950Z,-8.31
2022-12-14T05:52:09.434Z,-8.34
2022-12-14T05:54:37.811Z,-8.36
2022-12-14T05:57:07.485Z,-8.39
2022-12-14T05:59:37.887Z,-8.43
2022-12-14T06:02:06.432Z,-8.48
2022-12-14T06:04:35.298Z,-8.53
2022-12-14T06:07:04.570Z,-8.57
2022-12-14T06:09:32.870Z,-8.60
2022-12-14T06:12:01.161Z,-8.62
2022-12-14T06:14:29.557Z,-8.65
2022-12-14T06:16:58.072Z,-8.69
2022-12-14T06:19:26.833Z,-8.71
2022-12-14T06:21:55.827Z,-8.73
2022-12-14T06:24:24.188Z,-8.77
2022-12-14T06:26:52.521Z,-8.80
2022-12-14T06:29:21.430Z,-8.83
2022-12-14T06:31:50.446Z,-8.87
2022-12-14T06:34:21.274Z,-8.89
2022-12-14T06:36:53.351Z,-8.92
2022-12-14T06:39:21.676Z,-8.95
2022-12-14T06:41:53.713Z,-8.98
2022-12-14T06:44:22.251Z,-9.01
2022-12-14T06:46:50.793Z,-9.02
2022-12-14T06:49:19.108Z,-9.03
2022-12-14T06:51:47.768Z,-9.05
2022-12-14T06:54:18.087Z,-9.06
2022-12-14T06:56:47.813Z,-9.07
2022-12-14T06:59:17.342Z,-9.08
2022-12-14T07:01:49.795Z,-9.08
2022-12-14T07:04:21.619Z,-9.07
2022-12-14T07:06:50.606Z,-9.08
2022-12-14T07:09:19.405Z,-9.08
2022-12-14T07:11:51.492Z,-9.07
2022-12-14T07:14:19.914Z,-9.06
2022-12-14T07:16:49.073Z,-9.06
2022-12-14T07:19:18.618Z,-9.04
2022-12-14T07:21:50.511Z,-9.04
2022-12-14T07:24:24.425Z,-9.04
2022-12-14T07:26:54.005Z,-9.01
2022-12-14T07:29:22.962Z,-8.98
2022-12-14T07:31:51.748Z,-8.96
2022-12-14T07:34:20.433Z,-8.88
2022-12-14T07:36:53.797Z,-8.74
2022-12-14T07:39:22.921Z,-8.57
2022-12-14T07:41:51.311Z,-8.34
2022-12-14T07:44:19.796Z,-8.12
2022-12-14T07:46:48.265Z,-8.17
2022-12-14T07:49:16.646Z,-7.90
2022-12-14T07:51:46.261Z,-6.46
2022-12-14T07:54:14.717Z,-5.01
2022-12-14T07:56:44.286Z,-3.81
2022-12-14T07:59:18.096Z,-2.91
2022-12-14T08:01:46.664Z,-2.24
2022-12-14T08:04:20.322Z,-1.36
2022-12-14T08:06:49.689Z,-0.44
2022-12-14T08:09:18.348Z,0.28
2022-12-14T08:11:47.177Z,0.65
2022-12-14T08:14:18.083Z,1.08
2022-12-14T08:16:48.199Z,1.75
2022-12-14T08:19:18.130Z,2.25
2022-12-14T08:21:46.833Z,2.68
2022-12-14T08:24:17.206Z,3.09
2022-12-14T08:26:49.178Z,3.53
2022-12-14T08:29:18.732Z,2.60
2022-12-14T08:31:47.391Z,0.72
2022-12-14T08:34:23.008Z,-0.60
2022-12-14T08:36:51.371Z,-1.61
2022-12-14T08:39:19.865Z,-2.28
2022-12-14T08:41:48.250Z,-2.90
2022-12-14T08:44:19.486Z,-3.36
2022-12-14T08:46:48.145Z,-3.75
2022-12-14T08:49:16.564Z,-4.12
2022-12-14T08:51:45.014Z,-4.38
2022-12-14T08:54:13.340Z,-4.58
2022-12-14T08:56:41.802Z,-4.70
2022-12-14T08:59:24.502Z,-4.87
2022-12-14T09:01:59.155Z,-5.05
2022-12-14T09:04:27.936Z,-5.21
2022-12-14T09:06:56.733Z,-5.34
2022-12-14T09:09:25.254Z,-5.39
2022-12-14T09:11:54.195Z,-5.41
2022-12-14T09:14:22.630Z,-5.47
2022-12-14T09:16:51.006Z,-5.54
2022-12-14T09:19:20.296Z,-5.58
2022-12-14T09:21:48.644Z,-5.60
2022-12-14T09:24:17.155Z,-5.59
2022-12-14T09:26:46.947Z,-5.58
2022-12-14T09:29:17.603Z,-5.57
2022-12-14T09:31:46.171Z,-5.56
2022-12-14T09:34:14.722Z,-5.55
2022-12-14T09:36:43.121Z,-5.52
2022-12-14T09:39:15.361Z,-5.46
2022-12-14T09:41:57.704Z,-5.47
2022-12-14T09:44:32.922Z,-5.46
2022-12-14T09:47:11.515Z,-5.45
2022-12-14T09:50:01.521Z,-5.47
2022-12-14T09:52:49.092Z,-5.49
2022-12-14T09:56:22.945Z,-5.48
2022-12-14T09:58:57.921Z,-5.46
2022-12-14T10:02:33.406Z,-5.46
2022-12-14T10:05:40.894Z,-5.39
2022-12-14T10:08:32.818Z,-5.35
2022-12-14T10:11:01.425Z,-5.33
2022-12-14T10:13:35.909Z,-5.34
2022-12-14T10:16:32.261Z,-5.33
2022-12-14T10:19:25.339Z,-5.32
2022-12-14T10:22:00.831Z,-5.33
2022-12-14T10:24:36.595Z,-5.34
2022-12-14T10:27:10.091Z,-5.29
2022-12-14T10:29:46.978Z,-5.26
2022-12-14T10:32:29.839Z,-5.25
2022-12-14T10:34:59.840Z,-5.19
2022-12-14T10:37:39.173Z,-5.12
2022-12-14T10:40:16.420Z,-5.08
2022-12-14T10:43:09.147Z,-5.11
2022-12-14T10:46:10.041Z,-5.11
2022-12-14T10:49:11.065Z,-5.11
2022-12-14T10:51:43.749Z,-5.08
2022-12-14T10:54:14.985Z,-5.07
2022-12-14T10:56:49.876Z,-5.05
2022-12-14T10:59:18.881Z,-5.08
2022-12-14T11:01:50.165Z,-5.11
2022-12-14T11:05:00.419Z,-5.14
2022-12-14T11:07:34.630Z,-5.16
2022-12-14T11:10:22.626Z,-5.17
2022-12-14T11:13:13.929Z,-5.16
2022-12-14T11:15:48.255Z,-5.13
2022-12-14T11:18:16.684Z,-5.12
2022-12-14T11:20:52.676Z,-5.14
2022-12-14T11:23:36.243Z,-5.10
2022-12-14T11:26:09.624Z,-5.08
2022-12-14T11:28:50.704Z,-5.06
2022-12-14T11:31:39.488Z,-5.08
2022-12-14T11:34:28.549Z,-5.09
2022-12-14T11:37:10.882Z,-5.04
2022-12-14T11:39:42.809Z,-5.00
2022-12-14T11:42:19.244Z,-4.98
2022-12-14T11:44:50.012Z,-4.93
2022-12-14T11:47:21.296Z,-4.87
2022-12-14T11:49:54.856Z,-4.85
2022-12-14T11:52:25.834Z,-4.85
2022-12-14T11:54:57.206Z,-4.86
2022-12-14T11:57:32.583Z,-4.88
2022-12-14T12:00:06.005Z,-4.91
2022-12-14T12:02:48.047Z,-4.93
2022-12-14T12:05:21.019Z,-4.91
2022-12-14T12:07:49.414Z,-4.88
2022-12-14T12:10:34.834Z,-4.84
2022-12-14T12:13:06.604Z,-4.84
2022-12-14T12:15:41.590Z,-4.87
2022-12-14T12:18:26.176Z,-4.89
2022-12-14T12:21:10.497Z,-4.84
2022-12-14T12:24:13.374Z,-4.77
2022-12-14T12:26:56.273Z,-4.74
2022-12-14T12:29:40.927Z,-4.72
2022-12-14T12:32:31.398Z,-4.64
2022-12-14T12:35:12.505Z,-4.59
2022-12-14T12:37:46.572Z,-4.55
2022-12-14T12:40:33.613Z,-4.49
2022-12-14T12:43:24.386Z,-4.44
2022-12-14T12:46:05.945Z,-4.38
2022-12-14T12:48:49.363Z,-4.34
2022-12-14T12:51:25.489Z,-4.29
2022-12-14T12:54:06.701Z,-4.17
2022-12-14T12:56:38.039Z,-4.10
2022-12-14T12:59:08.158Z,-4.09
2022-12-14T13:01:41.678Z,-4.16
2022-12-14T13:04:23.687Z,-4.23
2022-12-14T13:06:57.487Z,-4.23
2022-12-14T13:09:28.872Z,-4.24
2022-12-14T13:11:58.381Z,-4.27
2022-12-14T13:14:39.269Z,-4.30
2022-12-14T13:17:40.900Z,-4.31
2022-12-14T13:20:32.309Z,-4.37
2022-12-14T13:23:28.334Z,-4.45
2022-12-14T13:26:48.549Z,-4.55
2022-12-14T13:29:32.234Z,-4.66
2022-12-14T13:32:24.796Z,-4.72
2022-12-14T13:35:35.308Z,-4.77
2022-12-14T13:38:22.810Z,-4.84
2022-12-14T13:41:15.285Z,-4.91
2022-12-14T13:43:57.256Z,-4.96
2022-12-14T13:46:29.572Z,-5.00
2022-12-14T13:49:03.287Z,-5.06
2022-12-14T13:51:34.586Z,-5.13
2022-12-14T13:54:06.740Z,-5.18
2022-12-14T13:56:39.164Z,-5.21
2022-12-14T13:59:27.923Z,-5.24
2022-12-14T14:01:59.155Z,-5.29
2022-12-14T14:04:32.461Z,-5.32
2022-12-14T14:07:26.222Z,-5.36
2022-12-14T14:10:06.734Z,-5.38
2022-12-14T14:12:41.072Z,-5.42
2022-12-14T14:15:09.699Z,-5.46
2022-12-14T14:17:46.354Z,-5.51
2022-12-14T14:20:41.166Z,-5.57
2022-12-14T14:23:16.213Z,-5.62
2022-12-14T14:26:10.457Z,-5.65
2022-12-14T14:28:39.351Z,-5.70
2022-12-14T14:31:07.935Z,-5.74
2022-12-14T14:33:55.108Z,-5.80
2022-12-14T14:36:26.812Z,-5.85
2022-12-14T14:38:56.468Z,-5.89
2022-12-14T14:41:33.314Z,-5.91
2022-12-14T14:44:05.115Z,-5.95
2022-12-14T14:46:39.699Z,-5.97
2022-12-14T14:49:25.678Z,-6.01
2022-12-14T14:51:54.437Z,-6.05
2022-12-14T14:55:10.606Z,-6.07
2022-12-14T14:57:54.622Z,-6.10
2022-12-14T15:00:23.444Z,-6.12
2022-12-14T15:02:54.431Z,-6.16
2022-12-14T15:05:43.345Z,-6.18
2022-12-14T15:08:33.399Z,-6.18
2022-12-14T15:11:12.313Z,-6.20
2022-12-14T15:13:48.540Z,-6.24
2022-12-14T15:16:28.552Z,-6.27
2022-12-14T15:19:25.296Z,-6.28
2022-12-14T15:21:59.874Z,-6.30
2022-12-14T15:24:38.260Z,-6.32
2022-12-14T15:27:20.287Z,-6.34
2022-12-14T15:29:49.639Z,-6.35
2022-12-14T15:32:21.695Z,-6.35
2022-12-14T15:35:00.125Z,-6.37
2022-12-14T15:38:04.830Z,-6.39
2022-12-14T15:40:34.974Z,-6.42
2022-12-14T15:43:17.285Z,-6.43
2022-12-14T15:45:49.980Z,-6.45
2022-12-14T15:48:27.990Z,-6.48
2022-12-14T15:51:01.131Z,-6.51
2022-12-14T15:53:37.074Z,-6.54
2022-12-14T15:56:23.523Z,-6.56
2022-12-14T15:58:53.659Z,-6.59
2022-12-14T16:01:23.673Z,-6.60
2022-12-14T16:03:55.973Z,-6.63
2022-12-14T16:06:27.979Z,-6.65
2022-12-14T16:09:32.677Z,-6.67
2022-12-14T16:12:17.042Z,-6.70
2022-12-14T16:14:57.501Z,-6.74
2022-12-14T16:17:36.031Z,-6.78
2022-12-14T16:20:26.499Z,-6.81
2022-12-14T16:23:13.528Z,-6.85
2022-12-14T16:26:00.740Z,-6.89
2022-12-14T16:28:37.961Z,-6.92
2022-12-14T16:31:08.692Z,-6.93
2022-12-14T16:33:39.250Z,-6.96
2022-12-14T16:36:09.793Z,-6.98
2022-12-14T16:39:01.235Z,-7.00
2022-12-14T16:41:51.823Z,-7.00
2022-12-14T16:44:23.283Z,-7.01
2022-12-14T16:47:01.784Z,-7.02
2022-12-14T16:49:40.040Z,-7.04
2022-12-14T16:52:16.960Z,-7.03
2022-12-14T16:55:13.765Z,-7.01
2022-12-14T16:57:49.188Z,-6.99
2022-12-14T17:00:25.396Z,-6.99
2022-12-14T17:02:59.433Z,-7.00
2022-12-14T17:05:36.315Z,-7.01
2022-12-14T17:08:07.722Z,-7.00
2022-12-14T17:10:37.819Z,-7.00
2022-12-14T17:13:06.996Z,-7.00
2022-12-14T17:15:49.527Z,-7.02
2022-12-14T17:18:19.627Z,-7.02
2022-12-14T17:20:49.649Z,-7.01
2022-12-14T17:23:20.594Z,-7.02
2022-12-14T17:25:49.244Z,-7.03
2022-12-14T17:28:29.335Z,-7.04
2022-12-14T17:31:02.889Z,-7.04
2022-12-14T17:33:33.058Z,-7.06
2022-12-14T17:36:02.215Z,-7.08
2022-12-14T17:38:32.274Z,-7.09
2022-12-14T17:41:00.957Z,-7.09
2022-12-14T17:43:31.504Z,-7.08
2022-12-14T17:46:05.925Z,-7.08
2022-12-14T17:48:36.917Z,-7.08
2022-12-14T17:51:07.286Z,-7.09
2022-12-14T17:53:37.289Z,-7.09
2022-12-14T17:56:07.278Z,-7.07
2022-12-14T17:58:36.891Z,-7.07
2022-12-14T18:01:08.467Z,-7.08
2022-12-14T18:03:38.261Z,-7.09
2022-12-14T18:06:15.954Z,-7.10
2022-12-14T18:08:46.245Z,-7.10
2022-12-14T18:11:20.394Z,-7.10
2022-12-14T18:13:51.526Z,-7.12
2022-12-14T18:16:24.049Z,-7.13
2022-12-14T18:18:55.519Z,-7.13
2022-12-14T18:21:31.146Z,-7.14
2022-12-14T18:24:01.740Z,-7.13
2022-12-14T18:26:31.451Z,-7.14
2022-12-14T18:29:02.706Z,-7.13
2022-12-14T18:31:41.861Z,-7.13
2022-12-14T18:34:23.024Z,-7.12
2022-12-14T18:36:53.324Z,-7.12
2022-12-14T18:39:24.479Z,-7.12
2022-12-14T18:41:54.530Z,-7.12
2022-12-14T18:44:24.419Z,-7.12
2022-12-14T18:46:59.778Z,-7.12
2022-12-14T18:49:37.774Z,-7.14
2022-12-14T18:52:08.351Z,-7.17
2022-12-14T18:54:39.115Z,-7.18
2022-12-14T18:57:10.896Z,-7.18
2022-12-14T18:59:44.694Z,-7.17
2022-12-14T19:02:16.615Z,-7.17
2022-12-14T19:04:50.948Z,-7.18
2022-12-14T19:07:22.633Z,-7.20
2022-12-14T19:09:55.039Z,-7.21
2022-12-14T19:12:27.036Z,-7.21
2022-12-14T19:14:57.999Z,-7.20
2022-12-14T19:17:28.054Z,-7.20
2022-12-14T19:19:58.575Z,-7.21
2022-12-14T19:22:31.576Z,-7.19
2022-12-14T19:25:03.146Z,-7.18
2022-12-14T19:28:11.403Z,-7.18
2022-12-14T19:30:25.969Z,-7.17
2022-12-14T19:32:59.717Z,-7.16
2022-12-14T19:35:33.413Z,-7.14
2022-12-14T19:38:03.966Z,-7.13
2022-12-14T19:40:33.860Z,-7.12
2022-12-14T19:43:09.437Z,-7.12
2022-12-14T19:45:41.943Z,-7.11
2022-12-14T19:48:21.947Z,-7.11
2022-12-14T19:50:53.673Z,-7.09
2022-12-14T19:53:29.728Z,-7.08
2022-12-14T19:56:01.738Z,-7.10
2022-12-14T19:58:33.735Z,-7.08
2022-12-14T20:01:13.686Z,-7.07
2022-12-14T20:03:45.326Z,-7.07
2022-12-14T20:06:17.781Z,-7.08
2022-12-14T20:08:50.305Z,-7.08
2022-12-14T20:11:21.635Z,-7.07
2022-12-14T20:13:58.118Z,-7.06
2022-12-14T20:16:34.505Z,-7.06
2022-12-14T20:19:05.252Z,-7.07
2022-12-14T20:21:36.600Z,-7.07
2022-12-14T20:24:15.026Z,-7.07
2022-12-14T20:26:46.850Z,-7.07
2022-12-14T20:29:20.837Z,-7.08
2022-12-14T20:31:51.882Z,-7.09
2022-12-14T20:34:27.999Z,-7.09
2022-12-14T20:36:59.397Z,-7.09
2022-12-14T20:39:31.543Z,-7.08
2022-12-14T20:42:02.173Z,-7.09
2022-12-14T20:44:32.244Z,-7.08
2022-12-14T20:47:03.398Z,-7.08
2022-12-14T20:49:35.357Z,-7.07
2022-12-14T20:52:06.134Z,-7.06
2022-12-14T20:54:38.152Z,-7.07
2022-12-14T20:57:09.893Z,-7.07
2022-12-14T20:59:41.860Z,-7.06
2022-12-14T21:02:23.185Z,-7.06
2022-12-14T21:04:54.090Z,-7.06
2022-12-14T21:07:26.077Z,-7.07
2022-12-14T21:09:56.164Z,-7.07
2022-12-14T21:12:27.427Z,-7.05
2022-12-14T21:14:57.293Z,-7.05
2022-12-14T21:17:32.687Z,-7.07
2022-12-14T21:20:01.995Z,-7.08
2022-12-14T21:22:32.683Z,-7.09
2022-12-14T21:25:05.793Z,-7.09
2022-12-14T21:27:40.397Z,-7.10
2022-12-14T21:30:12.098Z,-7.12
2022-12-14T21:32:42.178Z,-7.12
2022-12-14T21:35:12.556Z,-7.12
2022-12-14T21:37:41.204Z,-7.11
2022-12-14T21:40:29.842Z,-7.08
2022-12-14T21:42:59.354Z,-7.03
2022-12-14T21:45:28.103Z,-7.02
2022-12-14T21:47:56.865Z,-7.02
2022-12-14T21:50:25.370Z,-7.05
2022-12-14T21:52:54.181Z,-7.07
2022-12-14T21:55:22.932Z,-7.10
2022-12-14T21:58:10.469Z,-7.12
2022-12-14T22:00:38.972Z,-7.15
2022-12-14T22:03:07.603Z,-7.17
2022-12-14T22:05:39.934Z,-7.20
2022-12-14T22:08:08.261Z,-7.24
2022-12-14T22:10:36.668Z,-7.28
2022-12-14T22:13:04.984Z,-7.32
2022-12-14T22:15:33.363Z,-7.35
2022-12-14T22:18:01.946Z,-7.39
2022-12-14T22:20:30.987Z,-7.42
2022-12-14T22:23:00.360Z,-7.46
2022-12-14T22:25:28.743Z,-7.49
2022-12-14T22:27:57.143Z,-7.53
2022-12-14T22:30:31.586Z,-7.56
2022-12-14T22:33:00.586Z,-7.60
2022-12-14T22:35:29.084Z,-7.62
2022-12-14T22:37:57.427Z,-7.62
2022-12-14T22:40:26.154Z,-7.56
2022-12-14T22:42:54.738Z,-7.52
2022-12-14T22:45:23.049Z,-7.56
2022-12-14T22:47:51.459Z,-7.57
2022-12-14T22:50:21.018Z,-7.54
2022-12-14T22:52:49.750Z,-7.52
2022-12-14T22:55:18.535Z,-7.43
2022-12-14T22:57:48.484Z,-7.33
2022-12-14T23:00:17.519Z,-7.24
2022-12-14T23:02:48.672Z,-7.16
2022-12-14T23:05:18.127Z,-7.10
2022-12-14T23:07:46.512Z,-7.02
2022-12-14T23:10:33.624Z,-7.00
2022-12-14T23:13:20.537Z,-7.00
2022-12-14T23:16:07.742Z,-7.09
2022-12-14T23:18:55.063Z,-7.18
2022-12-14T23:21:42.212Z,-7.27
2022-12-14T23:24:29.459Z,-7.40
2022-12-14T23:27:16.615Z,-7.50
2022-12-14T23:30:03.640Z,-7.57
2022-12-14T23:32:50.903Z,-7.57
2022-12-14T23:35:37.993Z,-7.53
2022-12-14T23:38:26.947Z,-7.53
2022-12-14T23:41:18.566Z,-7.51
2022-12-14T23:44:05.743Z,-7.56
2022-12-14T23:46:52.821Z,-7.60
2022-12-14T23:49:40.251Z,-7.56
2022-12-14T23:52:27.241Z,-7.41
2022-12-14T23:55:14.592Z,-7.35
2022-12-14T23:58:01.677Z,-7.33
